sensor_id;sensor_type;location;lat;lon;timestamp;P1;durP1;ratioP1;P2;durP2;ratioP2
44438;SDS011;30145;48.874;10.186;2024-01-30T00:00:27;14.33;;;10.00;;
44438;SDS011;30145;48.874;10.186;2024-01-30T00:02:54;15.00;;;9.30;;
44438;SDS011;30145;48.874;10.186;2024-01-30T00:05:21;20.47;;;10.60;;
44438;SDS011;30145;48.874;10.186;2024-01-30T00:07:49;18.80;;;10.57;;
44438;SDS011;30145;48.874;10.186;2024-01-30T00:10:17;17.03;;;10.50;;
44438;SDS011;30145;48.874;10.186;2024-01-30T00:12:44;14.90;;;10.30;;
44438;SDS011;30145;48.874;10.186;2024-01-30T00:15:11;10.30;;;8.90;;
44438;SDS011;30145;48.874;10.186;2024-01-30T00:17:38;14.03;;;9.43;;
44438;SDS011;30145;48.874;10.186;2024-01-30T00:20:05;12.20;;;9.33;;
44438;SDS011;30145;48.874;10.186;2024-01-30T00:22:33;13.37;;;9.00;;
44438;SDS011;30145;48.874;10.186;2024-01-30T00:25:00;11.00;;;9.07;;
44438;SDS011;30145;48.874;10.186;2024-01-30T00:27:27;11.77;;;9.07;;
44438;SDS011;30145;48.874;10.186;2024-01-30T00:29:55;12.77;;;9.13;;
44438;SDS011;30145;48.874;10.186;2024-01-30T00:32:22;10.40;;;7.70;;
44438;SDS011;30145;48.874;10.186;2024-01-30T00:34:50;11.67;;;7.07;;
44438;SDS011;30145;48.874;10.186;2024-01-30T00:37:17;8.83;;;5.60;;
44438;SDS011;30145;48.874;10.186;2024-01-30T00:39:44;4.77;;;4.30;;
44438;SDS011;30145;48.874;10.186;2024-01-30T00:42:11;4.73;;;4.00;;
44438;SDS011;30145;48.874;10.186;2024-01-30T00:44:38;25.57;;;13.30;;
44438;SDS011;30145;48.874;10.186;2024-01-30T00:47:05;18.07;;;10.50;;
44438;SDS011;30145;48.874;10.186;2024-01-30T00:49:32;15.33;;;10.10;;
44438;SDS011;30145;48.874;10.186;2024-01-30T00:52:00;13.30;;;8.90;;
44438;SDS011;30145;48.874;10.186;2024-01-30T00:54:27;11.03;;;6.93;;
44438;SDS011;30145;48.874;10.186;2024-01-30T00:56:54;11.70;;;8.10;;
44438;SDS011;30145;48.874;10.186;2024-01-30T00:59:21;12.00;;;8.20;;
44438;SDS011;30145;48.874;10.186;2024-01-30T01:01:48;10.83;;;7.27;;
44438;SDS011;30145;48.874;10.186;2024-01-30T01:04:15;10.20;;;6.57;;
44438;SDS011;30145;48.874;10.186;2024-01-30T01:06:42;8.87;;;6.30;;
44438;SDS011;30145;48.874;10.186;2024-01-30T01:09:11;11.40;;;6.33;;
44438;SDS011;30145;48.874;10.186;2024-01-30T01:11:38;13.63;;;8.13;;
44438;SDS011;30145;48.874;10.186;2024-01-30T01:14:06;19.10;;;11.43;;
44438;SDS011;30145;48.874;10.186;2024-01-30T01:16:33;18.73;;;12.67;;
44438;SDS011;30145;48.874;10.186;2024-01-30T01:19:00;17.57;;;10.20;;
44438;SDS011;30145;48.874;10.186;2024-01-30T01:21:27;14.03;;;8.97;;
44438;SDS011;30145;48.874;10.186;2024-01-30T01:23:54;13.40;;;8.03;;
44438;SDS011;30145;48.874;10.186;2024-01-30T01:26:22;12.67;;;7.70;;
44438;SDS011;30145;48.874;10.186;2024-01-30T01:28:49;13.00;;;8.37;;
44438;SDS011;30145;48.874;10.186;2024-01-30T01:31:16;10.60;;;6.80;;
44438;SDS011;30145;48.874;10.186;2024-01-30T01:33:44;9.07;;;6.60;;
44438;SDS011;30145;48.874;10.186;2024-01-30T01:36:11;10.23;;;6.93;;
44438;SDS011;30145;48.874;10.186;2024-01-30T01:38:40;7.00;;;5.53;;
44438;SDS011;30145;48.874;10.186;2024-01-30T01:41:07;6.97;;;4.53;;
44438;SDS011;30145;48.874;10.186;2024-01-30T01:43:35;5.17;;;3.27;;
44438;SDS011;30145;48.874;10.186;2024-01-30T01:46:02;4.77;;;3.53;;
44438;SDS011;30145;48.874;10.186;2024-01-30T01:48:29;6.60;;;4.87;;
44438;SDS011;30145;48.874;10.186;2024-01-30T01:50:56;12.93;;;6.53;;
44438;SDS011;30145;48.874;10.186;2024-01-30T01:53:24;7.93;;;6.00;;
44438;SDS011;30145;48.874;10.186;2024-01-30T01:55:51;9.23;;;7.10;;
44438;SDS011;30145;48.874;10.186;2024-01-30T01:58:19;6.77;;;6.00;;
44438;SDS011;30145;48.874;10.186;2024-01-30T02:00:49;8.90;;;5.63;;
44438;SDS011;30145;48.874;10.186;2024-01-30T02:03:17;7.93;;;6.13;;
44438;SDS011;30145;48.874;10.186;2024-01-30T02:05:48;9.40;;;6.57;;
44438;SDS011;30145;48.874;10.186;2024-01-30T02:08:17;10.50;;;7.10;;
44438;SDS011;30145;48.874;10.186;2024-01-30T02:10:44;14.53;;;9.00;;
44438;SDS011;30145;48.874;10.186;2024-01-30T02:13:11;9.90;;;7.70;;
44438;SDS011;30145;48.874;10.186;2024-01-30T02:15:38;12.43;;;9.20;;
44438;SDS011;30145;48.874;10.186;2024-01-30T02:18:05;14.83;;;10.43;;
44438;SDS011;30145;48.874;10.186;2024-01-30T02:20:33;12.13;;;9.70;;
44438;SDS011;30145;48.874;10.186;2024-01-30T02:23:01;18.10;;;10.90;;
44438;SDS011;30145;48.874;10.186;2024-01-30T02:25:39;13.37;;;9.70;;
44438;SDS011;30145;48.874;10.186;2024-01-30T02:28:11;12.53;;;9.17;;
44438;SDS011;30145;48.874;10.186;2024-01-30T02:30:39;14.53;;;10.20;;
44438;SDS011;30145;48.874;10.186;2024-01-30T02:33:06;15.20;;;9.90;;
44438;SDS011;30145;48.874;10.186;2024-01-30T02:35:33;13.50;;;9.57;;
44438;SDS011;30145;48.874;10.186;2024-01-30T02:38:01;14.80;;;10.70;;
44438;SDS011;30145;48.874;10.186;2024-01-30T02:40:28;13.60;;;9.60;;
44438;SDS011;30145;48.874;10.186;2024-01-30T02:42:55;17.63;;;10.67;;
44438;SDS011;30145;48.874;10.186;2024-01-30T02:45:22;15.27;;;10.63;;
44438;SDS011;30145;48.874;10.186;2024-01-30T02:47:49;14.67;;;10.30;;
44438;SDS011;30145;48.874;10.186;2024-01-30T02:50:16;12.60;;;10.20;;
44438;SDS011;30145;48.874;10.186;2024-01-30T02:52:44;13.07;;;9.47;;
44438;SDS011;30145;48.874;10.186;2024-01-30T02:55:11;12.97;;;9.50;;
44438;SDS011;30145;48.874;10.186;2024-01-30T02:57:39;15.23;;;10.03;;
44438;SDS011;30145;48.874;10.186;2024-01-30T03:00:06;14.13;;;10.63;;
44438;SDS011;30145;48.874;10.186;2024-01-30T03:02:36;16.07;;;10.70;;
44438;SDS011;30145;48.874;10.186;2024-01-30T03:05:05;11.10;;;8.80;;
44438;SDS011;30145;48.874;10.186;2024-01-30T03:07:33;13.20;;;10.23;;
44438;SDS011;30145;48.874;10.186;2024-01-30T03:10:00;12.67;;;9.50;;
44438;SDS011;30145;48.874;10.186;2024-01-30T03:12:27;13.63;;;9.47;;
44438;SDS011;30145;48.874;10.186;2024-01-30T03:14:54;16.23;;;10.23;;
44438;SDS011;30145;48.874;10.186;2024-01-30T03:17:21;12.73;;;9.80;;
44438;SDS011;30145;48.874;10.186;2024-01-30T03:19:48;13.83;;;10.03;;
44438;SDS011;30145;48.874;10.186;2024-01-30T03:22:15;13.53;;;9.60;;
44438;SDS011;30145;48.874;10.186;2024-01-30T03:24:52;12.43;;;8.10;;
44438;SDS011;30145;48.874;10.186;2024-01-30T03:27:19;10.60;;;8.40;;
44438;SDS011;30145;48.874;10.186;2024-01-30T03:29:46;11.70;;;8.83;;
44438;SDS011;30145;48.874;10.186;2024-01-30T03:32:13;13.67;;;9.60;;
44438;SDS011;30145;48.874;10.186;2024-01-30T03:34:40;12.90;;;9.90;;
44438;SDS011;30145;48.874;10.186;2024-01-30T03:37:07;13.97;;;9.50;;
44438;SDS011;30145;48.874;10.186;2024-01-30T03:39:34;12.27;;;9.00;;
44438;SDS011;30145;48.874;10.186;2024-01-30T03:42:03;14.00;;;10.20;;
44438;SDS011;30145;48.874;10.186;2024-01-30T03:44:30;13.40;;;9.83;;
44438;SDS011;30145;48.874;10.186;2024-01-30T03:46:57;11.53;;;8.20;;
44438;SDS011;30145;48.874;10.186;2024-01-30T03:49:24;10.00;;;7.80;;
44438;SDS011;30145;48.874;10.186;2024-01-30T03:51:51;11.93;;;8.70;;
44438;SDS011;30145;48.874;10.186;2024-01-30T03:54:18;12.57;;;9.10;;
44438;SDS011;30145;48.874;10.186;2024-01-30T03:56:45;12.13;;;8.60;;
44438;SDS011;30145;48.874;10.186;2024-01-30T03:59:12;15.80;;;9.83;;
44438;SDS011;30145;48.874;10.186;2024-01-30T04:01:39;17.53;;;12.17;;
44438;SDS011;30145;48.874;10.186;2024-01-30T04:04:06;16.37;;;11.63;;
44438;SDS011;30145;48.874;10.186;2024-01-30T04:06:33;13.57;;;10.00;;
44438;SDS011;30145;48.874;10.186;2024-01-30T04:09:00;14.23;;;9.77;;
44438;SDS011;30145;48.874;10.186;2024-01-30T04:11:27;10.97;;;8.40;;
44438;SDS011;30145;48.874;10.186;2024-01-30T04:13:54;12.90;;;9.50;;
44438;SDS011;30145;48.874;10.186;2024-01-30T04:16:22;12.13;;;9.07;;
44438;SDS011;30145;48.874;10.186;2024-01-30T04:18:49;13.27;;;10.33;;
44438;SDS011;30145;48.874;10.186;2024-01-30T04:21:17;15.37;;;9.40;;
44438;SDS011;30145;48.874;10.186;2024-01-30T04:23:44;13.17;;;9.03;;
44438;SDS011;30145;48.874;10.186;2024-01-30T04:26:11;12.00;;;10.00;;
44438;SDS011;30145;48.874;10.186;2024-01-30T04:28:40;13.03;;;10.40;;
44438;SDS011;30145;48.874;10.186;2024-01-30T04:31:08;16.27;;;10.13;;
44438;SDS011;30145;48.874;10.186;2024-01-30T04:33:35;15.13;;;10.40;;
44438;SDS011;30145;48.874;10.186;2024-01-30T04:36:02;16.43;;;10.73;;
44438;SDS011;30145;48.874;10.186;2024-01-30T04:38:31;20.33;;;12.80;;
44438;SDS011;30145;48.874;10.186;2024-01-30T04:40:58;18.93;;;12.07;;
44438;SDS011;30145;48.874;10.186;2024-01-30T04:43:25;17.57;;;11.80;;
44438;SDS011;30145;48.874;10.186;2024-01-30T04:45:53;15.77;;;10.47;;
44438;SDS011;30145;48.874;10.186;2024-01-30T04:48:20;12.10;;;9.60;;
44438;SDS011;30145;48.874;10.186;2024-01-30T04:50:47;12.20;;;8.73;;
44438;SDS011;30145;48.874;10.186;2024-01-30T04:53:14;11.27;;;7.80;;
44438;SDS011;30145;48.874;10.186;2024-01-30T04:55:41;12.53;;;8.80;;
44438;SDS011;30145;48.874;10.186;2024-01-30T04:58:08;11.97;;;8.97;;
44438;SDS011;30145;48.874;10.186;2024-01-30T05:00:35;14.00;;;9.47;;
44438;SDS011;30145;48.874;10.186;2024-01-30T05:03:02;14.00;;;10.17;;
44438;SDS011;30145;48.874;10.186;2024-01-30T05:05:29;14.37;;;10.80;;
44438;SDS011;30145;48.874;10.186;2024-01-30T05:07:56;12.90;;;9.93;;
44438;SDS011;30145;48.874;10.186;2024-01-30T05:10:23;17.07;;;11.00;;
44438;SDS011;30145;48.874;10.186;2024-01-30T05:12:50;13.13;;;8.83;;
44438;SDS011;30145;48.874;10.186;2024-01-30T05:15:17;9.53;;;7.17;;
44438;SDS011;30145;48.874;10.186;2024-01-30T05:17:44;10.03;;;6.20;;
44438;SDS011;30145;48.874;10.186;2024-01-30T05:20:11;6.80;;;5.37;;
44438;SDS011;30145;48.874;10.186;2024-01-30T05:22:38;6.77;;;4.73;;
44438;SDS011;30145;48.874;10.186;2024-01-30T05:25:14;4.73;;;3.53;;
44438;SDS011;30145;48.874;10.186;2024-01-30T05:27:41;7.07;;;5.60;;
44438;SDS011;30145;48.874;10.186;2024-01-30T05:30:08;5.70;;;3.70;;
44438;SDS011;30145;48.874;10.186;2024-01-30T05:32:36;4.47;;;3.27;;
44438;SDS011;30145;48.874;10.186;2024-01-30T05:35:03;6.47;;;3.10;;
44438;SDS011;30145;48.874;10.186;2024-01-30T05:37:30;5.97;;;3.80;;
44438;SDS011;30145;48.874;10.186;2024-01-30T05:39:57;3.00;;;2.70;;
44438;SDS011;30145;48.874;10.186;2024-01-30T05:42:25;2.70;;;2.30;;
44438;SDS011;30145;48.874;10.186;2024-01-30T05:44:53;3.63;;;2.70;;
44438;SDS011;30145;48.874;10.186;2024-01-30T05:47:20;3.53;;;2.80;;
44438;SDS011;30145;48.874;10.186;2024-01-30T05:49:47;4.63;;;2.80;;
44438;SDS011;30145;48.874;10.186;2024-01-30T05:52:14;10.27;;;5.40;;
44438;SDS011;30145;48.874;10.186;2024-01-30T05:54:42;15.97;;;7.57;;
44438;SDS011;30145;48.874;10.186;2024-01-30T05:57:09;12.27;;;6.97;;
44438;SDS011;30145;48.874;10.186;2024-01-30T05:59:36;11.23;;;7.57;;
44438;SDS011;30145;48.874;10.186;2024-01-30T06:02:04;14.60;;;8.73;;
44438;SDS011;30145;48.874;10.186;2024-01-30T06:04:31;16.80;;;8.87;;
44438;SDS011;30145;48.874;10.186;2024-01-30T06:06:58;60.50;;;32.77;;
44438;SDS011;30145;48.874;10.186;2024-01-30T06:09:28;23.37;;;14.43;;
44438;SDS011;30145;48.874;10.186;2024-01-30T06:11:57;22.60;;;13.37;;
44438;SDS011;30145;48.874;10.186;2024-01-30T06:14:24;22.50;;;12.17;;
44438;SDS011;30145;48.874;10.186;2024-01-30T06:16:52;14.83;;;10.47;;
44438;SDS011;30145;48.874;10.186;2024-01-30T06:19:19;11.97;;;9.60;;
44438;SDS011;30145;48.874;10.186;2024-01-30T06:21:45;10.87;;;9.03;;
44438;SDS011;30145;48.874;10.186;2024-01-30T06:24:13;13.30;;;8.67;;
44438;SDS011;30145;48.874;10.186;2024-01-30T06:26:40;10.97;;;7.90;;
44438;SDS011;30145;48.874;10.186;2024-01-30T06:29:07;12.27;;;6.57;;
44438;SDS011;30145;48.874;10.186;2024-01-30T06:31:41;12.40;;;5.93;;
44438;SDS011;30145;48.874;10.186;2024-01-30T06:34:09;8.00;;;5.03;;
44438;SDS011;30145;48.874;10.186;2024-01-30T06:36:36;9.93;;;4.60;;
44438;SDS011;30145;48.874;10.186;2024-01-30T06:39:03;6.20;;;4.27;;
44438;SDS011;30145;48.874;10.186;2024-01-30T06:41:31;5.60;;;4.30;;
44438;SDS011;30145;48.874;10.186;2024-01-30T06:43:58;5.73;;;4.30;;
44438;SDS011;30145;48.874;10.186;2024-01-30T06:46:25;4.07;;;3.23;;
44438;SDS011;30145;48.874;10.186;2024-01-30T06:48:52;4.57;;;3.07;;
44438;SDS011;30145;48.874;10.186;2024-01-30T06:51:19;4.77;;;3.50;;
44438;SDS011;30145;48.874;10.186;2024-01-30T06:53:46;7.87;;;5.30;;
44438;SDS011;30145;48.874;10.186;2024-01-30T06:56:13;6.77;;;4.47;;
44438;SDS011;30145;48.874;10.186;2024-01-30T06:58:40;5.23;;;3.97;;
44438;SDS011;30145;48.874;10.186;2024-01-30T07:01:07;7.50;;;4.37;;
44438;SDS011;30145;48.874;10.186;2024-01-30T07:03:34;9.27;;;5.33;;
44438;SDS011;30145;48.874;10.186;2024-01-30T07:06:01;5.60;;;4.60;;
44438;SDS011;30145;48.874;10.186;2024-01-30T07:08:28;6.73;;;5.07;;
44438;SDS011;30145;48.874;10.186;2024-01-30T07:10:55;12.67;;;8.83;;
44438;SDS011;30145;48.874;10.186;2024-01-30T07:13:24;11.93;;;8.30;;
44438;SDS011;30145;48.874;10.186;2024-01-30T07:15:51;11.70;;;8.93;;
44438;SDS011;30145;48.874;10.186;2024-01-30T07:18:18;11.77;;;9.03;;
44438;SDS011;30145;48.874;10.186;2024-01-30T07:20:46;13.03;;;9.07;;
44438;SDS011;30145;48.874;10.186;2024-01-30T07:23:13;10.73;;;8.50;;
44438;SDS011;30145;48.874;10.186;2024-01-30T07:25:43;12.07;;;8.37;;
44438;SDS011;30145;48.874;10.186;2024-01-30T07:28:13;11.40;;;8.30;;
44438;SDS011;30145;48.874;10.186;2024-01-30T07:30:40;11.03;;;8.40;;
44438;SDS011;30145;48.874;10.186;2024-01-30T07:33:07;12.67;;;9.43;;
44438;SDS011;30145;48.874;10.186;2024-01-30T07:35:35;10.73;;;8.23;;
44438;SDS011;30145;48.874;10.186;2024-01-30T07:38:03;12.27;;;8.77;;
44438;SDS011;30145;48.874;10.186;2024-01-30T07:40:30;10.47;;;8.20;;
44438;SDS011;30145;48.874;10.186;2024-01-30T07:42:57;10.40;;;8.07;;
44438;SDS011;30145;48.874;10.186;2024-01-30T07:45:24;7.17;;;6.07;;
44438;SDS011;30145;48.874;10.186;2024-01-30T07:47:52;7.77;;;4.60;;
44438;SDS011;30145;48.874;10.186;2024-01-30T07:50:19;4.83;;;3.50;;
44438;SDS011;30145;48.874;10.186;2024-01-30T07:52:46;4.73;;;3.37;;
44438;SDS011;30145;48.874;10.186;2024-01-30T07:55:15;4.77;;;3.07;;
44438;SDS011;30145;48.874;10.186;2024-01-30T07:57:42;4.43;;;3.07;;
44438;SDS011;30145;48.874;10.186;2024-01-30T08:00:09;4.70;;;2.53;;
44438;SDS011;30145;48.874;10.186;2024-01-30T08:02:36;3.40;;;2.37;;
44438;SDS011;30145;48.874;10.186;2024-01-30T08:05:03;2.97;;;2.30;;
44438;SDS011;30145;48.874;10.186;2024-01-30T08:07:31;3.27;;;2.57;;
44438;SDS011;30145;48.874;10.186;2024-01-30T08:09:58;4.47;;;3.73;;
44438;SDS011;30145;48.874;10.186;2024-01-30T08:12:25;6.43;;;4.77;;
44438;SDS011;30145;48.874;10.186;2024-01-30T08:14:52;7.53;;;5.60;;
44438;SDS011;30145;48.874;10.186;2024-01-30T08:17:19;9.23;;;6.87;;
44438;SDS011;30145;48.874;10.186;2024-01-30T08:19:46;9.40;;;7.30;;
44438;SDS011;30145;48.874;10.186;2024-01-30T08:22:13;12.63;;;8.43;;
44438;SDS011;30145;48.874;10.186;2024-01-30T08:24:40;10.53;;;8.33;;
44438;SDS011;30145;48.874;10.186;2024-01-30T08:27:07;10.83;;;8.13;;
44438;SDS011;30145;48.874;10.186;2024-01-30T08:29:36;9.60;;;7.97;;
44438;SDS011;30145;48.874;10.186;2024-01-30T08:32:04;11.23;;;7.60;;
44438;SDS011;30145;48.874;10.186;2024-01-30T08:34:32;7.47;;;6.17;;
44438;SDS011;30145;48.874;10.186;2024-01-30T08:36:59;6.30;;;5.17;;
44438;SDS011;30145;48.874;10.186;2024-01-30T08:39:27;9.60;;;5.83;;
44438;SDS011;30145;48.874;10.186;2024-01-30T08:41:54;7.37;;;5.67;;
44438;SDS011;30145;48.874;10.186;2024-01-30T08:44:21;8.00;;;5.80;;
44438;SDS011;30145;48.874;10.186;2024-01-30T08:46:48;8.33;;;6.80;;
44438;SDS011;30145;48.874;10.186;2024-01-30T08:49:16;10.97;;;8.00;;
44438;SDS011;30145;48.874;10.186;2024-01-30T08:51:43;14.00;;;8.23;;
44438;SDS011;30145;48.874;10.186;2024-01-30T08:54:11;10.20;;;6.60;;
44438;SDS011;30145;48.874;10.186;2024-01-30T08:56:38;10.67;;;6.20;;
44438;SDS011;30145;48.874;10.186;2024-01-30T08:59:05;9.43;;;6.30;;
44438;SDS011;30145;48.874;10.186;2024-01-30T09:01:31;8.23;;;5.17;;
44438;SDS011;30145;48.874;10.186;2024-01-30T09:03:58;8.83;;;5.33;;
44438;SDS011;30145;48.874;10.186;2024-01-30T09:06:26;7.17;;;5.27;;
44438;SDS011;30145;48.874;10.186;2024-01-30T09:08:54;7.40;;;5.13;;
44438;SDS011;30145;48.874;10.186;2024-01-30T09:11:21;9.47;;;5.83;;
44438;SDS011;30145;48.874;10.186;2024-01-30T09:13:48;9.57;;;7.03;;
44438;SDS011;30145;48.874;10.186;2024-01-30T09:16:16;12.57;;;7.77;;
44438;SDS011;30145;48.874;10.186;2024-01-30T09:18:43;10.73;;;8.20;;
44438;SDS011;30145;48.874;10.186;2024-01-30T09:21:10;9.23;;;6.70;;
44438;SDS011;30145;48.874;10.186;2024-01-30T09:23:37;8.60;;;7.00;;
44438;SDS011;30145;48.874;10.186;2024-01-30T09:26:04;8.30;;;7.43;;
44438;SDS011;30145;48.874;10.186;2024-01-30T09:28:31;14.93;;;10.63;;
44438;SDS011;30145;48.874;10.186;2024-01-30T09:30:58;15.43;;;10.50;;
44438;SDS011;30145;48.874;10.186;2024-01-30T09:33:25;22.27;;;13.73;;
44438;SDS011;30145;48.874;10.186;2024-01-30T09:35:52;20.03;;;12.43;;
44438;SDS011;30145;48.874;10.186;2024-01-30T09:38:19;12.13;;;9.00;;
44438;SDS011;30145;48.874;10.186;2024-01-30T09:40:48;12.47;;;8.50;;
44438;SDS011;30145;48.874;10.186;2024-01-30T09:43:18;10.37;;;8.07;;
44438;SDS011;30145;48.874;10.186;2024-01-30T09:45:52;7.43;;;6.53;;
44438;SDS011;30145;48.874;10.186;2024-01-30T09:48:20;8.10;;;5.07;;
44438;SDS011;30145;48.874;10.186;2024-01-30T09:50:47;6.40;;;5.30;;
44438;SDS011;30145;48.874;10.186;2024-01-30T09:53:14;6.77;;;5.83;;
44438;SDS011;30145;48.874;10.186;2024-01-30T09:55:42;8.03;;;5.77;;
44438;SDS011;30145;48.874;10.186;2024-01-30T09:58:11;7.80;;;6.20;;
44438;SDS011;30145;48.874;10.186;2024-01-30T10:00:38;12.70;;;8.87;;
44438;SDS011;30145;48.874;10.186;2024-01-30T10:03:05;9.57;;;7.07;;
44438;SDS011;30145;48.874;10.186;2024-01-30T10:05:32;7.33;;;6.27;;
44438;SDS011;30145;48.874;10.186;2024-01-30T10:08:07;6.60;;;5.43;;
44438;SDS011;30145;48.874;10.186;2024-01-30T10:10:36;5.50;;;4.90;;
44438;SDS011;30145;48.874;10.186;2024-01-30T10:13:03;7.40;;;6.33;;
44438;SDS011;30145;48.874;10.186;2024-01-30T10:15:30;7.30;;;5.40;;
44438;SDS011;30145;48.874;10.186;2024-01-30T10:17:57;7.67;;;6.90;;
44438;SDS011;30145;48.874;10.186;2024-01-30T10:20:24;6.07;;;5.47;;
44438;SDS011;30145;48.874;10.186;2024-01-30T10:22:52;7.80;;;5.07;;
44438;SDS011;30145;48.874;10.186;2024-01-30T10:25:19;6.53;;;5.37;;
44438;SDS011;30145;48.874;10.186;2024-01-30T10:27:52;9.57;;;5.87;;
44438;SDS011;30145;48.874;10.186;2024-01-30T10:30:22;8.37;;;5.77;;
44438;SDS011;30145;48.874;10.186;2024-01-30T10:32:49;7.67;;;5.70;;
44438;SDS011;30145;48.874;10.186;2024-01-30T10:35:16;9.73;;;5.40;;
44438;SDS011;30145;48.874;10.186;2024-01-30T10:37:44;6.30;;;4.77;;
44438;SDS011;30145;48.874;10.186;2024-01-30T10:40:14;7.30;;;5.30;;
44438;SDS011;30145;48.874;10.186;2024-01-30T10:42:43;7.17;;;4.93;;
44438;SDS011;30145;48.874;10.186;2024-01-30T10:45:14;6.43;;;5.50;;
44438;SDS011;30145;48.874;10.186;2024-01-30T10:47:49;8.83;;;6.10;;
44438;SDS011;30145;48.874;10.186;2024-01-30T10:50:16;7.43;;;5.27;;
44438;SDS011;30145;48.874;10.186;2024-01-30T10:52:43;8.67;;;6.37;;
44438;SDS011;30145;48.874;10.186;2024-01-30T10:55:12;8.83;;;5.60;;
44438;SDS011;30145;48.874;10.186;2024-01-30T10:57:40;7.93;;;6.07;;
44438;SDS011;30145;48.874;10.186;2024-01-30T11:00:08;10.47;;;7.80;;
44438;SDS011;30145;48.874;10.186;2024-01-30T11:02:38;13.93;;;7.80;;
44438;SDS011;30145;48.874;10.186;2024-01-30T11:05:07;14.63;;;8.97;;
44438;SDS011;30145;48.874;10.186;2024-01-30T11:07:35;9.47;;;6.20;;
44438;SDS011;30145;48.874;10.186;2024-01-30T11:10:03;8.23;;;4.57;;
44438;SDS011;30145;48.874;10.186;2024-01-30T11:12:32;2.40;;;2.20;;
44438;SDS011;30145;48.874;10.186;2024-01-30T11:15:06;2.07;;;1.70;;
44438;SDS011;30145;48.874;10.186;2024-01-30T11:22:47;2.07;;;1.30;;
44438;SDS011;30145;48.874;10.186;2024-01-30T11:25:16;2.50;;;1.63;;
44438;SDS011;30145;48.874;10.186;2024-01-30T11:27:44;4.50;;;1.70;;
44438;SDS011;30145;48.874;10.186;2024-01-30T11:30:22;2.20;;;1.97;;
44438;SDS011;30145;48.874;10.186;2024-01-30T11:35:36;2.40;;;1.87;;
44438;SDS011;30145;48.874;10.186;2024-01-30T11:38:05;2.87;;;1.60;;
44438;SDS011;30145;48.874;10.186;2024-01-30T11:40:33;1.90;;;1.70;;
44438;SDS011;30145;48.874;10.186;2024-01-30T11:43:02;2.47;;;1.80;;
44438;SDS011;30145;48.874;10.186;2024-01-30T11:45:31;2.50;;;1.80;;
44438;SDS011;30145;48.874;10.186;2024-01-30T11:47:59;1.73;;;1.43;;
44438;SDS011;30145;48.874;10.186;2024-01-30T11:50:28;1.50;;;1.40;;
44438;SDS011;30145;48.874;10.186;2024-01-30T11:52:55;2.20;;;1.87;;
44438;SDS011;30145;48.874;10.186;2024-01-30T11:55:23;5.30;;;2.60;;
44438;SDS011;30145;48.874;10.186;2024-01-30T11:57:50;2.03;;;1.80;;
44438;SDS011;30145;48.874;10.186;2024-01-30T12:00:18;1.90;;;1.70;;
44438;SDS011;30145;48.874;10.186;2024-01-30T12:02:49;2.40;;;1.90;;
44438;SDS011;30145;48.874;10.186;2024-01-30T12:05:18;1.90;;;1.80;;
44438;SDS011;30145;48.874;10.186;2024-01-30T12:07:46;2.17;;;1.73;;
44438;SDS011;30145;48.874;10.186;2024-01-30T12:10:13;2.87;;;1.97;;
44438;SDS011;30145;48.874;10.186;2024-01-30T12:12:42;4.10;;;2.10;;
44438;SDS011;30145;48.874;10.186;2024-01-30T12:15:12;2.10;;;1.83;;
44438;SDS011;30145;48.874;10.186;2024-01-30T12:17:39;2.03;;;1.67;;
44438;SDS011;30145;48.874;10.186;2024-01-30T12:20:14;4.63;;;2.10;;
44438;SDS011;30145;48.874;10.186;2024-01-30T12:22:43;2.50;;;1.80;;
44438;SDS011;30145;48.874;10.186;2024-01-30T12:25:12;2.10;;;1.80;;
44438;SDS011;30145;48.874;10.186;2024-01-30T12:27:45;2.50;;;2.00;;
44438;SDS011;30145;48.874;10.186;2024-01-30T12:30:17;2.00;;;1.63;;
44438;SDS011;30145;48.874;10.186;2024-01-30T12:32:47;1.60;;;1.50;;
44438;SDS011;30145;48.874;10.186;2024-01-30T12:35:17;2.67;;;1.80;;
44438;SDS011;30145;48.874;10.186;2024-01-30T12:37:46;3.30;;;1.70;;
44438;SDS011;30145;48.874;10.186;2024-01-30T12:40:15;2.40;;;2.00;;
44438;SDS011;30145;48.874;10.186;2024-01-30T12:42:45;3.80;;;1.90;;
44438;SDS011;30145;48.874;10.186;2024-01-30T12:45:15;2.27;;;1.80;;
44438;SDS011;30145;48.874;10.186;2024-01-30T12:47:48;2.63;;;1.77;;
44438;SDS011;30145;48.874;10.186;2024-01-30T12:50:15;2.73;;;1.63;;
44438;SDS011;30145;48.874;10.186;2024-01-30T12:52:43;2.97;;;1.97;;
44438;SDS011;30145;48.874;10.186;2024-01-30T12:55:12;4.47;;;1.80;;
44438;SDS011;30145;48.874;10.186;2024-01-30T12:57:40;2.27;;;1.90;;
44438;SDS011;30145;48.874;10.186;2024-01-30T13:00:07;3.50;;;2.30;;
44438;SDS011;30145;48.874;10.186;2024-01-30T13:02:35;2.87;;;2.10;;
44438;SDS011;30145;48.874;10.186;2024-01-30T13:05:04;4.07;;;1.83;;
44438;SDS011;30145;48.874;10.186;2024-01-30T13:07:33;1.73;;;1.60;;
44438;SDS011;30145;48.874;10.186;2024-01-30T13:10:00;2.27;;;1.80;;
44438;SDS011;30145;48.874;10.186;2024-01-30T13:12:30;1.90;;;1.70;;
44438;SDS011;30145;48.874;10.186;2024-01-30T13:14:59;4.17;;;1.63;;
44438;SDS011;30145;48.874;10.186;2024-01-30T13:17:32;2.80;;;1.90;;
44438;SDS011;30145;48.874;10.186;2024-01-30T13:20:00;3.00;;;2.03;;
44438;SDS011;30145;48.874;10.186;2024-01-30T13:22:31;5.27;;;3.60;;
44438;SDS011;30145;48.874;10.186;2024-01-30T13:24:58;2.23;;;2.00;;
44438;SDS011;30145;48.874;10.186;2024-01-30T13:27:25;2.37;;;1.80;;
44438;SDS011;30145;48.874;10.186;2024-01-30T13:29:52;4.33;;;1.70;;
44438;SDS011;30145;48.874;10.186;2024-01-30T13:32:19;2.40;;;1.90;;
44438;SDS011;30145;48.874;10.186;2024-01-30T13:34:46;1.60;;;1.50;;
44438;SDS011;30145;48.874;10.186;2024-01-30T13:37:14;3.20;;;1.80;;
44438;SDS011;30145;48.874;10.186;2024-01-30T13:39:42;2.17;;;1.70;;
44438;SDS011;30145;48.874;10.186;2024-01-30T13:42:09;3.80;;;2.30;;
44438;SDS011;30145;48.874;10.186;2024-01-30T13:44:38;3.13;;;1.67;;
44438;SDS011;30145;48.874;10.186;2024-01-30T13:47:06;2.00;;;1.80;;
44438;SDS011;30145;48.874;10.186;2024-01-30T13:49:33;6.13;;;2.17;;
44438;SDS011;30145;48.874;10.186;2024-01-30T13:52:00;3.33;;;1.90;;
44438;SDS011;30145;48.874;10.186;2024-01-30T13:54:27;3.57;;;2.20;;
44438;SDS011;30145;48.874;10.186;2024-01-30T13:56:55;2.33;;;1.97;;
44438;SDS011;30145;48.874;10.186;2024-01-30T13:59:21;2.67;;;2.10;;
44438;SDS011;30145;48.874;10.186;2024-01-30T14:01:51;6.07;;;2.27;;
44438;SDS011;30145;48.874;10.186;2024-01-30T14:04:18;2.20;;;2.00;;
44438;SDS011;30145;48.874;10.186;2024-01-30T14:06:45;3.17;;;2.63;;
44438;SDS011;30145;48.874;10.186;2024-01-30T14:09:13;18.77;;;10.43;;
44438;SDS011;30145;48.874;10.186;2024-01-30T14:11:41;12.13;;;7.33;;
44438;SDS011;30145;48.874;10.186;2024-01-30T14:14:09;4.93;;;3.63;;
44438;SDS011;30145;48.874;10.186;2024-01-30T14:16:36;3.87;;;3.10;;
44438;SDS011;30145;48.874;10.186;2024-01-30T14:19:03;2.90;;;2.47;;
44438;SDS011;30145;48.874;10.186;2024-01-30T14:21:30;3.27;;;2.47;;
44438;SDS011;30145;48.874;10.186;2024-01-30T14:23:57;3.43;;;2.50;;
44438;SDS011;30145;48.874;10.186;2024-01-30T14:26:24;5.17;;;2.67;;
44438;SDS011;30145;48.874;10.186;2024-01-30T14:28:51;5.17;;;3.07;;
44438;SDS011;30145;48.874;10.186;2024-01-30T14:31:18;4.97;;;3.40;;
44438;SDS011;30145;48.874;10.186;2024-01-30T14:33:46;5.33;;;3.10;;
44438;SDS011;30145;48.874;10.186;2024-01-30T14:36:13;3.07;;;2.53;;